This is the latest recevied weather packets stored in our database for station/object K3HW. If no packets are shown the sender has not sent any weather packets the latest 10 day(s).
| Time | Temp. | Humidity | Pressure | Rain* | Wind** | Luminosity | Snow |
|---|---|---|---|---|---|---|---|
| 1777487072 | 17.22° C | 54% | 1016.1 hPa | 0 mm | - | 49 W/m² | - |
| 1777486767 | 17.78° C | 53% | 1016 hPa | 0 mm | - | 106 W/m² | - |
| 1777486466 | 17.22° C | 57% | 1016.2 hPa | 0 mm | - | 144 W/m² | - |
| 1777486163 | 17.22° C | 53% | 1016.5 hPa | 0 mm | - | 134 W/m² | - |
| 1777485860 | 17.22° C | 53% | 1016.3 hPa | 0 mm | - | 112 W/m² | - |
| 1777485560 | 17.22° C | 55% | 1016.3 hPa | 0 mm | - | 93 W/m² | - |
| 1777485257 | 17.22° C | 54% | 1016.4 hPa | 0 mm | - | 120 W/m² | - |
| 1777484954 | 17.22° C | 55% | 1016.7 hPa | 0 mm | - | 101 W/m² | - |
| 1777484651 | 17.78° C | 54% | 1016.6 hPa | 0 mm | - | 107 W/m² | - |
| 1777484347 | 17.78° C | 55% | 1016.5 hPa | 0 mm | - | 159 W/m² | - |
| 1777484043 | 17.22° C | 54% | 1016.6 hPa | 0 mm | - | 194 W/m² | - |
| 1777483740 | 17.22° C | 54% | 1016.8 hPa | 0 mm | - | 156 W/m² | - |
| 1777483435 | 17.22° C | 55% | 1017 hPa | 0 mm | - | 132 W/m² | - |
| 1777483130 | 17.22° C | 56% | 1017.1 hPa | 0 mm | - | 113 W/m² | - |
| 1777482828 | 16.67° C | 56% | 1017.3 hPa | 0 mm | - | 83 W/m² | - |
| 1777482523 | 17.22° C | 56% | 1017.2 hPa | 0 mm | - | 70 W/m² | - |
| 1777482221 | 17.78° C | 54% | 1017.2 hPa | 0 mm | - | 72 W/m² | - |
| 1777481918 | 18.33° C | 53% | 1017.2 hPa | 0 mm | - | 161 W/m² | - |
| 1777481616 | 18.89° C | 52% | 1017.1 hPa | 0 mm | - | 450 W/m² | - |
| 1777481313 | 17.78° C | 57% | 1017.1 hPa | 0 mm | - | 348 W/m² | - |
| 1777481009 | 17.78° C | 54% | 1017.1 hPa | 0 mm | - | 223 W/m² | - |
| 1777480706 | 17.78° C | 55% | 1017.2 hPa | 0 mm | - | 274 W/m² | - |
| 1777480403 | 17.78° C | 54% | 1017.2 hPa | 0 mm | - | 517 W/m² | - |
| 1777480099 | 17.22° C | 55% | 1017.2 hPa | 0 mm | - | 348 W/m² | - |
| 1777479795 | 16.67° C | 57% | 1017.3 hPa | 0 mm | - | 149 W/m² | - |
* Rain latest hour (hover to see other rain measurements)
** Current wind speed in m/s (hover to see current wind gust speed)